Madrid, Iowa
Current Conditions -  °F | °C
As of 8:15 AM on Thursday 29 Jan 2015 (Local Time) from KBNW Reporting Station
Overcast Overcast  
Wind Chill: 19°   Ceiling: 1200
Heat Index: 32°   Visibility: 10mi
Dew Point: 30°   Wind: 23mph
Humidity: 93%   Direction: 330°NNW
Pressure: 30.13"   Gusts: NA
Location:  41.88°N, 93.82°W
Report Text: KBNW 291415Z AUTO 33020KT 10SM OVC012 00/M01 A3013 RMK AO2
Loading
Personal Weather Stations






























Interactive Weather Map New forecast layout! Learn more

10-Day Weather Forecast

Advertisements
Track Severe Weather on mobile